Airfield :
LOGIN :

Register | Disclaimer

   EN    FR    IT 

 










Legend :    VFR   Marginal VFR   IFR   Intensive IFR   Very Intensive IFR
Visi :
Ceiling :
>= 8 km
>= 3000ft
5 to 8 km
1000 to 3000 ft
1500m to 5 km
500 to 1000 ft
800 to 1500m
200 to 500 ft
< 800m
< 200 ft
Symbols :   Thunderstorms  Fog  Heavy snow  Heavy precipitations  Wind > 20 kt
SIGMETs :     Misc.  Thunderstorms  Icing  Turbulence  Mountain Waves  Volcanic Ashes







- Airport Elevation : 236 ft
- IATA code : MMX


ESMS - Malmö Sturup

CURRENT METAR :
  • 222150Z 12004KT 080V150 9999 -RA SCT030CB 14/13 Q1005

EXPIRED METARs :
  • 222120Z 10005KT CAVOK 14/13 Q1005
  • 222050Z 11004KT CAVOK 14/12 Q1006
  • 222020Z 13003KT 100V170 CAVOK 14/12 Q1006
  • 221950Z 16004KT CAVOK 15/13 Q1007
  • 221920Z 12004KT CAVOK 15/13 Q1006

TAF TAF ESMS
Valid from the 22 at 18:00 until the 23 at 18:00 UTC


221710Z 2218/2318 12008KT 9999 SCT030
TEMPO 2220/2302 VRB15G30KT 3000 SHRA TSRA BKN008 BKN040CB
TEMPO 2302/2306 09015G30KT 1200 SHRA TSRA BR BKN004 BKN040CB
BECMG 2306/2308 06010KT
TEMPO 2306/2310 BKN008
TEMPO 2316/2318 4000 RADZ BKN008
No reported NOTAMs for that airfield.



MET'MAP, your aeronautical weather chart ! - Copyright ORBIFLY December 2007 - Disclaimer

ORBIFLY MET'MAP TEAM :

Programming & Development : Alexandra Zaïnal
Concept & Development : Baudouin d'Aumeries
Co-Development & Prog : Marc-Olivier Méhu
Technical & hardware support : Manuel Goepfert

Contact : metmap@orbifly.com




SOURCES & CREDITS :

   NOAA